sensor_id;sensor_type;location;lat;lon;timestamp;P1;durP1;ratioP1;P2;durP2;ratioP2
27580;SDS011;63557;52.302;7.964;2022-12-29T00:02:20;8.57;;;7.70;;
27580;SDS011;63557;52.302;7.964;2022-12-29T00:07:20;8.65;;;7.85;;
27580;SDS011;63557;52.302;7.964;2022-12-29T00:12:21;9.00;;;7.77;;
27580;SDS011;63557;52.302;7.964;2022-12-29T00:17:21;8.35;;;7.13;;
27580;SDS011;63557;52.302;7.964;2022-12-29T00:22:22;9.83;;;7.83;;
27580;SDS011;63557;52.302;7.964;2022-12-29T00:27:41;9.10;;;7.75;;
27580;SDS011;63557;52.302;7.964;2022-12-29T00:32:59;8.95;;;6.90;;
27580;SDS011;63557;52.302;7.964;2022-12-29T00:38:18;7.60;;;6.63;;
27580;SDS011;63557;52.302;7.964;2022-12-29T00:43:38;7.28;;;6.57;;
27580;SDS011;63557;52.302;7.964;2022-12-29T00:48:57;6.40;;;5.78;;
27580;SDS011;63557;52.302;7.964;2022-12-29T00:54:16;6.78;;;5.50;;
27580;SDS011;63557;52.302;7.964;2022-12-29T00:59:17;5.80;;;5.30;;
27580;SDS011;63557;52.302;7.964;2022-12-29T01:04:19;6.22;;;5.63;;
27580;SDS011;63557;52.302;7.964;2022-12-29T01:09:20;5.97;;;5.40;;
27580;SDS011;63557;52.302;7.964;2022-12-29T01:14:39;5.28;;;4.78;;
27580;SDS011;63557;52.302;7.964;2022-12-29T01:19:39;4.88;;;4.47;;
27580;SDS011;63557;52.302;7.964;2022-12-29T01:24:40;6.53;;;4.50;;
27580;SDS011;63557;52.302;7.964;2022-12-29T01:29:40;4.80;;;4.30;;
27580;SDS011;63557;52.302;7.964;2022-12-29T01:34:41;4.15;;;3.75;;
27580;SDS011;63557;52.302;7.964;2022-12-29T01:39:41;4.73;;;4.23;;
27580;SDS011;63557;52.302;7.964;2022-12-29T01:44:55;4.77;;;4.37;;
27580;SDS011;63557;52.302;7.964;2022-12-29T01:49:56;4.68;;;3.53;;
27580;SDS011;63557;52.302;7.964;2022-12-29T01:54:58;4.60;;;4.20;;
27580;SDS011;63557;52.302;7.964;2022-12-29T02:00:00;6.80;;;5.80;;
27580;SDS011;63557;52.302;7.964;2022-12-29T02:05:18;8.18;;;7.38;;
27580;SDS011;63557;52.302;7.964;2022-12-29T02:10:20;9.07;;;6.90;;
27580;SDS011;63557;52.302;7.964;2022-12-29T02:16:06;11.07;;;8.02;;
27580;SDS011;63557;52.302;7.964;2022-12-29T02:31:17;7.85;;;7.15;;
27580;SDS011;63557;52.302;7.964;2022-12-29T02:36:24;6.32;;;5.82;;
27580;SDS011;63557;52.302;7.964;2022-12-29T02:41:31;6.80;;;6.10;;
27580;SDS011;63557;52.302;7.964;2022-12-29T02:46:36;7.32;;;6.65;;
27580;SDS011;63557;52.302;7.964;2022-12-29T02:51:45;6.78;;;6.18;;
27580;SDS011;63557;52.302;7.964;2022-12-29T02:56:46;8.30;;;5.63;;
27580;SDS011;63557;52.302;7.964;2022-12-29T03:12:37;5.45;;;3.85;;
27580;SDS011;63557;52.302;7.964;2022-12-29T03:18:06;3.83;;;3.53;;
27580;SDS011;63557;52.302;7.964;2022-12-29T03:23:10;2.80;;;2.60;;
27580;SDS011;63557;52.302;7.964;2022-12-29T03:28:13;2.40;;;2.20;;
27580;SDS011;63557;52.302;7.964;2022-12-29T03:33:21;3.17;;;2.30;;
27580;SDS011;63557;52.302;7.964;2022-12-29T03:38:37;2.33;;;2.13;;
27580;SDS011;63557;52.302;7.964;2022-12-29T03:43:38;2.30;;;2.10;;
27580;SDS011;63557;52.302;7.964;2022-12-29T03:48:39;3.05;;;2.03;;
27580;SDS011;63557;52.302;7.964;2022-12-29T03:53:39;6.03;;;1.98;;
27580;SDS011;63557;52.302;7.964;2022-12-29T03:58:39;1.70;;;1.50;;
27580;SDS011;63557;52.302;7.964;2022-12-29T04:03:44;2.08;;;1.75;;
27580;SDS011;63557;52.302;7.964;2022-12-29T04:08:45;1.45;;;1.35;;
27580;SDS011;63557;52.302;7.964;2022-12-29T04:13:45;1.43;;;1.33;;
27580;SDS011;63557;52.302;7.964;2022-12-29T04:18:49;2.65;;;1.73;;
27580;SDS011;63557;52.302;7.964;2022-12-29T04:23:50;1.85;;;1.05;;
27580;SDS011;63557;52.302;7.964;2022-12-29T04:28:51;1.70;;;1.60;;
27580;SDS011;63557;52.302;7.964;2022-12-29T04:34:06;1.42;;;1.27;;
27580;SDS011;63557;52.302;7.964;2022-12-29T04:39:07;1.90;;;1.73;;
27580;SDS011;63557;52.302;7.964;2022-12-29T04:44:09;4.47;;;1.50;;
27580;SDS011;63557;52.302;7.964;2022-12-29T04:49:38;3.45;;;1.63;;
27580;SDS011;63557;52.302;7.964;2022-12-29T04:54:59;3.40;;;1.70;;
27580;SDS011;63557;52.302;7.964;2022-12-29T05:00:00;1.63;;;1.40;;
27580;SDS011;63557;52.302;7.964;2022-12-29T05:05:01;2.58;;;1.50;;
27580;SDS011;63557;52.302;7.964;2022-12-29T05:10:03;2.65;;;1.40;;
27580;SDS011;63557;52.302;7.964;2022-12-29T05:15:05;2.55;;;1.70;;
27580;SDS011;63557;52.302;7.964;2022-12-29T05:20:06;2.58;;;1.60;;
27580;SDS011;63557;52.302;7.964;2022-12-29T05:25:08;1.80;;;1.60;;
27580;SDS011;63557;52.302;7.964;2022-12-29T05:30:20;1.50;;;1.27;;
27580;SDS011;63557;52.302;7.964;2022-12-29T05:35:20;3.17;;;1.70;;
27580;SDS011;63557;52.302;7.964;2022-12-29T05:40:21;2.50;;;1.60;;
27580;SDS011;63557;52.302;7.964;2022-12-29T05:45:21;3.47;;;1.80;;
27580;SDS011;63557;52.302;7.964;2022-12-29T05:50:48;4.38;;;1.80;;
27580;SDS011;63557;52.302;7.964;2022-12-29T05:55:51;3.30;;;1.73;;
27580;SDS011;63557;52.302;7.964;2022-12-29T06:00:51;2.95;;;1.52;;
27580;SDS011;63557;52.302;7.964;2022-12-29T06:05:52;2.90;;;1.30;;
27580;SDS011;63557;52.302;7.964;2022-12-29T06:10:52;1.23;;;0.82;;
27580;SDS011;63557;52.302;7.964;2022-12-29T06:15:52;1.20;;;0.80;;
27580;SDS011;63557;52.302;7.964;2022-12-29T06:20:53;3.90;;;0.80;;
27580;SDS011;63557;52.302;7.964;2022-12-29T06:25:54;1.38;;;0.80;;
27580;SDS011;63557;52.302;7.964;2022-12-29T06:30:55;0.63;;;0.63;;
27580;SDS011;63557;52.302;7.964;2022-12-29T06:35:56;3.50;;;0.88;;
27580;SDS011;63557;52.302;7.964;2022-12-29T06:40:56;3.28;;;0.90;;
27580;SDS011;63557;52.302;7.964;2022-12-29T06:46:17;6.28;;;1.70;;
27580;SDS011;63557;52.302;7.964;2022-12-29T06:51:17;2.13;;;0.87;;
27580;SDS011;63557;52.302;7.964;2022-12-29T06:56:17;7.40;;;1.47;;
27580;SDS011;63557;52.302;7.964;2022-12-29T07:01:18;5.50;;;1.40;;
27580;SDS011;63557;52.302;7.964;2022-12-29T07:06:18;7.23;;;1.50;;
27580;SDS011;63557;52.302;7.964;2022-12-29T07:11:18;4.90;;;1.40;;
27580;SDS011;63557;52.302;7.964;2022-12-29T07:16:19;4.53;;;1.55;;
27580;SDS011;63557;52.302;7.964;2022-12-29T07:21:20;5.93;;;1.55;;
27580;SDS011;63557;52.302;7.964;2022-12-29T07:26:20;4.77;;;1.60;;
27580;SDS011;63557;52.302;7.964;2022-12-29T07:31:21;3.70;;;1.48;;
27580;SDS011;63557;52.302;7.964;2022-12-29T07:36:22;9.40;;;2.15;;
27580;SDS011;63557;52.302;7.964;2022-12-29T07:41:22;4.00;;;1.33;;
27580;SDS011;63557;52.302;7.964;2022-12-29T07:46:23;5.67;;;1.50;;
27580;SDS011;63557;52.302;7.964;2022-12-29T07:51:23;4.82;;;1.75;;
27580;SDS011;63557;52.302;7.964;2022-12-29T07:56:23;8.83;;;1.60;;
27580;SDS011;63557;52.302;7.964;2022-12-29T08:01:24;8.27;;;1.50;;
27580;SDS011;63557;52.302;7.964;2022-12-29T08:06:24;5.00;;;1.83;;
27580;SDS011;63557;52.302;7.964;2022-12-29T08:11:24;10.70;;;1.73;;
27580;SDS011;63557;52.302;7.964;2022-12-29T08:16:25;8.57;;;1.43;;
27580;SDS011;63557;52.302;7.964;2022-12-29T08:21:27;5.60;;;1.70;;
27580;SDS011;63557;52.302;7.964;2022-12-29T08:26:27;4.90;;;1.40;;
27580;SDS011;63557;52.302;7.964;2022-12-29T08:31:27;6.63;;;1.30;;
27580;SDS011;63557;52.302;7.964;2022-12-29T08:36:28;4.83;;;1.30;;
27580;SDS011;63557;52.302;7.964;2022-12-29T08:41:28;5.88;;;1.70;;
27580;SDS011;63557;52.302;7.964;2022-12-29T08:46:28;8.77;;;1.90;;
27580;SDS011;63557;52.302;7.964;2022-12-29T08:51:29;5.90;;;1.20;;
27580;SDS011;63557;52.302;7.964;2022-12-29T08:56:29;12.13;;;2.17;;
27580;SDS011;63557;52.302;7.964;2022-12-29T09:01:33;7.05;;;1.58;;
27580;SDS011;63557;52.302;7.964;2022-12-29T09:06:36;3.85;;;1.52;;
27580;SDS011;63557;52.302;7.964;2022-12-29T09:11:36;3.95;;;1.83;;
27580;SDS011;63557;52.302;7.964;2022-12-29T09:16:37;5.73;;;1.67;;
27580;SDS011;63557;52.302;7.964;2022-12-29T09:21:37;8.25;;;1.58;;
27580;SDS011;63557;52.302;7.964;2022-12-29T09:26:37;6.07;;;1.50;;
27580;SDS011;63557;52.302;7.964;2022-12-29T09:31:38;5.50;;;1.80;;
27580;SDS011;63557;52.302;7.964;2022-12-29T09:36:39;13.40;;;2.23;;
27580;SDS011;63557;52.302;7.964;2022-12-29T09:41:41;14.30;;;2.50;;
27580;SDS011;63557;52.302;7.964;2022-12-29T09:46:44;7.90;;;1.63;;
27580;SDS011;63557;52.302;7.964;2022-12-29T09:51:47;7.53;;;1.88;;
27580;SDS011;63557;52.302;7.964;2022-12-29T09:56:49;6.18;;;1.30;;
27580;SDS011;63557;52.302;7.964;2022-12-29T10:06:59;8.82;;;1.58;;
27580;SDS011;63557;52.302;7.964;2022-12-29T10:17:23;7.57;;;1.85;;
27580;SDS011;63557;52.302;7.964;2022-12-29T10:27:31;5.28;;;1.20;;
27580;SDS011;63557;52.302;7.964;2022-12-29T10:37:41;7.23;;;1.80;;
27580;SDS011;63557;52.302;7.964;2022-12-29T10:42:45;12.02;;;2.47;;
27580;SDS011;63557;52.302;7.964;2022-12-29T10:52:53;10.02;;;2.28;;
27580;SDS011;63557;52.302;7.964;2022-12-29T10:57:54;7.75;;;2.10;;
27580;SDS011;63557;52.302;7.964;2022-12-29T11:08:19;7.60;;;2.03;;
27580;SDS011;63557;52.302;7.964;2022-12-29T11:13:25;7.07;;;1.52;;
27580;SDS011;63557;52.302;7.964;2022-12-29T11:18:35;6.18;;;1.77;;
27580;SDS011;63557;52.302;7.964;2022-12-29T11:23:38;11.63;;;2.00;;
27580;SDS011;63557;52.302;7.964;2022-12-29T11:28:40;9.38;;;2.08;;
27580;SDS011;63557;52.302;7.964;2022-12-29T11:33:40;11.45;;;2.05;;
27580;SDS011;63557;52.302;7.964;2022-12-29T11:38:42;10.50;;;1.97;;
27580;SDS011;63557;52.302;7.964;2022-12-29T11:43:45;6.47;;;1.70;;
27580;SDS011;63557;52.302;7.964;2022-12-29T11:48:47;8.50;;;2.20;;
27580;SDS011;63557;52.302;7.964;2022-12-29T11:53:52;5.93;;;1.73;;
27580;SDS011;63557;52.302;7.964;2022-12-29T11:58:53;6.47;;;2.10;;
27580;SDS011;63557;52.302;7.964;2022-12-29T12:08:58;8.15;;;1.92;;
27580;SDS011;63557;52.302;7.964;2022-12-29T12:14:02;10.27;;;1.80;;
27580;SDS011;63557;52.302;7.964;2022-12-29T12:19:32;9.48;;;2.03;;
27580;SDS011;63557;52.302;7.964;2022-12-29T12:29:36;4.53;;;1.63;;
27580;SDS011;63557;52.302;7.964;2022-12-29T12:34:37;6.00;;;1.42;;
27580;SDS011;63557;52.302;7.964;2022-12-29T12:45:04;12.93;;;2.75;;
27580;SDS011;63557;52.302;7.964;2022-12-29T12:55:36;7.53;;;2.13;;
27580;SDS011;63557;52.302;7.964;2022-12-29T13:00:45;11.05;;;2.42;;
27580;SDS011;63557;52.302;7.964;2022-12-29T13:06:09;13.52;;;2.00;;
27580;SDS011;63557;52.302;7.964;2022-12-29T13:16:40;12.43;;;2.92;;
27580;SDS011;63557;52.302;7.964;2022-12-29T13:31:52;14.55;;;3.28;;
27580;SDS011;63557;52.302;7.964;2022-12-29T13:37:02;9.88;;;2.47;;
27580;SDS011;63557;52.302;7.964;2022-12-29T13:42:04;12.05;;;2.67;;
27580;SDS011;63557;52.302;7.964;2022-12-29T13:57:41;9.45;;;2.22;;
27580;SDS011;63557;52.302;7.964;2022-12-29T14:07:46;11.75;;;3.85;;
27580;SDS011;63557;52.302;7.964;2022-12-29T14:12:47;9.75;;;2.75;;
27580;SDS011;63557;52.302;7.964;2022-12-29T14:18:34;9.13;;;3.47;;
27580;SDS011;63557;52.302;7.964;2022-12-29T14:28:16;9.25;;;2.67;;
27580;SDS011;63557;52.302;7.964;2022-12-29T14:33:22;9.73;;;3.10;;
27580;SDS011;63557;52.302;7.964;2022-12-29T14:38:24;10.30;;;2.42;;
27580;SDS011;63557;52.302;7.964;2022-12-29T14:43:26;14.02;;;3.08;;
27580;SDS011;63557;52.302;7.964;2022-12-29T14:48:32;20.48;;;7.68;;
27580;SDS011;63557;52.302;7.964;2022-12-29T14:53:49;16.83;;;5.95;;
27580;SDS011;63557;52.302;7.964;2022-12-29T15:03:51;12.33;;;4.30;;
27580;SDS011;63557;52.302;7.964;2022-12-29T15:09:00;18.67;;;3.25;;
27580;SDS011;63557;52.302;7.964;2022-12-29T15:14:02;15.65;;;3.90;;
27580;SDS011;63557;52.302;7.964;2022-12-29T15:19:03;13.20;;;3.97;;
27580;SDS011;63557;52.302;7.964;2022-12-29T15:24:05;15.27;;;4.82;;
27580;SDS011;63557;52.302;7.964;2022-12-29T15:29:25;16.77;;;4.85;;
27580;SDS011;63557;52.302;7.964;2022-12-29T15:34:28;14.75;;;4.82;;
27580;SDS011;63557;52.302;7.964;2022-12-29T15:39:30;6.35;;;2.65;;
27580;SDS011;63557;52.302;7.964;2022-12-29T15:44:32;9.32;;;2.55;;
27580;SDS011;63557;52.302;7.964;2022-12-29T15:49:34;10.02;;;3.10;;
27580;SDS011;63557;52.302;7.964;2022-12-29T15:54:36;14.98;;;3.05;;
27580;SDS011;63557;52.302;7.964;2022-12-29T15:59:44;13.55;;;3.13;;
27580;SDS011;63557;52.302;7.964;2022-12-29T16:04:45;13.50;;;3.17;;
27580;SDS011;63557;52.302;7.964;2022-12-29T16:09:47;12.30;;;2.40;;
27580;SDS011;63557;52.302;7.964;2022-12-29T16:14:52;8.00;;;2.13;;
27580;SDS011;63557;52.302;7.964;2022-12-29T16:19:55;7.50;;;2.10;;
27580;SDS011;63557;52.302;7.964;2022-12-29T16:24:57;8.15;;;2.15;;
27580;SDS011;63557;52.302;7.964;2022-12-29T16:29:58;11.93;;;2.28;;
27580;SDS011;63557;52.302;7.964;2022-12-29T16:50:48;6.70;;;2.67;;
27580;SDS011;63557;52.302;7.964;2022-12-29T16:55:49;7.22;;;2.97;;
27580;SDS011;63557;52.302;7.964;2022-12-29T17:00:51;7.28;;;2.47;;
27580;SDS011;63557;52.302;7.964;2022-12-29T17:05:52;9.80;;;3.22;;
27580;SDS011;63557;52.302;7.964;2022-12-29T17:10:55;8.60;;;2.23;;
27580;SDS011;63557;52.302;7.964;2022-12-29T17:16:14;9.40;;;2.67;;
27580;SDS011;63557;52.302;7.964;2022-12-29T17:21:15;11.93;;;2.53;;
27580;SDS011;63557;52.302;7.964;2022-12-29T17:26:15;9.23;;;2.30;;
27580;SDS011;63557;52.302;7.964;2022-12-29T17:31:15;13.73;;;2.93;;
27580;SDS011;63557;52.302;7.964;2022-12-29T17:36:16;7.70;;;2.30;;
27580;SDS011;63557;52.302;7.964;2022-12-29T17:41:16;7.27;;;1.93;;
27580;SDS011;63557;52.302;7.964;2022-12-29T17:46:16;8.33;;;2.37;;
27580;SDS011;63557;52.302;7.964;2022-12-29T17:51:17;8.80;;;3.00;;
27580;SDS011;63557;52.302;7.964;2022-12-29T17:56:18;8.57;;;2.33;;
27580;SDS011;63557;52.302;7.964;2022-12-29T18:01:19;10.90;;;2.80;;
27580;SDS011;63557;52.302;7.964;2022-12-29T18:06:21;8.73;;;2.35;;
27580;SDS011;63557;52.302;7.964;2022-12-29T18:11:24;9.93;;;2.70;;
27580;SDS011;63557;52.302;7.964;2022-12-29T18:16:25;7.80;;;2.28;;
27580;SDS011;63557;52.302;7.964;2022-12-29T18:21:26;11.03;;;2.70;;
27580;SDS011;63557;52.302;7.964;2022-12-29T18:26:27;11.27;;;2.40;;
27580;SDS011;63557;52.302;7.964;2022-12-29T18:31:28;9.40;;;2.40;;
27580;SDS011;63557;52.302;7.964;2022-12-29T18:36:29;5.63;;;1.73;;
27580;SDS011;63557;52.302;7.964;2022-12-29T18:41:29;8.60;;;1.70;;
27580;SDS011;63557;52.302;7.964;2022-12-29T18:46:29;7.57;;;2.40;;
27580;SDS011;63557;52.302;7.964;2022-12-29T18:51:30;8.73;;;2.13;;
27580;SDS011;63557;52.302;7.964;2022-12-29T18:56:30;8.23;;;2.47;;
27580;SDS011;63557;52.302;7.964;2022-12-29T19:01:31;11.07;;;3.20;;
27580;SDS011;63557;52.302;7.964;2022-12-29T19:06:31;9.10;;;2.50;;
27580;SDS011;63557;52.302;7.964;2022-12-29T19:11:32;6.60;;;3.17;;
27580;SDS011;63557;52.302;7.964;2022-12-29T19:16:32;9.00;;;2.65;;
27580;SDS011;63557;52.302;7.964;2022-12-29T19:21:32;9.70;;;3.30;;
27580;SDS011;63557;52.302;7.964;2022-12-29T19:26:34;11.63;;;2.60;;
27580;SDS011;63557;52.302;7.964;2022-12-29T19:31:36;5.90;;;2.20;;
27580;SDS011;63557;52.302;7.964;2022-12-29T19:36:36;11.18;;;4.40;;
27580;SDS011;63557;52.302;7.964;2022-12-29T19:41:37;8.90;;;2.33;;
27580;SDS011;63557;52.302;7.964;2022-12-29T19:46:37;10.60;;;3.85;;
27580;SDS011;63557;52.302;7.964;2022-12-29T19:51:38;12.23;;;3.37;;
27580;SDS011;63557;52.302;7.964;2022-12-29T19:56:38;8.53;;;2.40;;
27580;SDS011;63557;52.302;7.964;2022-12-29T20:01:42;8.15;;;2.47;;
27580;SDS011;63557;52.302;7.964;2022-12-29T20:06:42;15.77;;;4.83;;
27580;SDS011;63557;52.302;7.964;2022-12-29T20:11:42;13.77;;;4.17;;
27580;SDS011;63557;52.302;7.964;2022-12-29T20:16:43;8.87;;;2.80;;
27580;SDS011;63557;52.302;7.964;2022-12-29T20:21:43;10.23;;;3.00;;
27580;SDS011;63557;52.302;7.964;2022-12-29T20:26:43;20.90;;;3.90;;
27580;SDS011;63557;52.302;7.964;2022-12-29T20:31:44;13.75;;;3.33;;
27580;SDS011;63557;52.302;7.964;2022-12-29T20:36:45;11.60;;;2.95;;
27580;SDS011;63557;52.302;7.964;2022-12-29T20:41:46;21.15;;;3.35;;
27580;SDS011;63557;52.302;7.964;2022-12-29T20:46:47;19.27;;;4.47;;
27580;SDS011;63557;52.302;7.964;2022-12-29T20:51:47;14.57;;;3.22;;
27580;SDS011;63557;52.302;7.964;2022-12-29T20:56:48;15.68;;;3.63;;
27580;SDS011;63557;52.302;7.964;2022-12-29T21:01:49;16.75;;;4.45;;
27580;SDS011;63557;52.302;7.964;2022-12-29T21:06:49;22.67;;;4.33;;
27580;SDS011;63557;52.302;7.964;2022-12-29T21:11:49;21.23;;;5.77;;
27580;SDS011;63557;52.302;7.964;2022-12-29T21:16:50;26.47;;;7.50;;
27580;SDS011;63557;52.302;7.964;2022-12-29T21:21:50;22.03;;;4.97;;
27580;SDS011;63557;52.302;7.964;2022-12-29T21:26:51;14.25;;;3.53;;
27580;SDS011;63557;52.302;7.964;2022-12-29T21:31:51;17.30;;;4.43;;
27580;SDS011;63557;52.302;7.964;2022-12-29T21:36:51;17.33;;;3.87;;
27580;SDS011;63557;52.302;7.964;2022-12-29T21:41:52;21.42;;;5.22;;
27580;SDS011;63557;52.302;7.964;2022-12-29T21:46:52;24.30;;;4.82;;
27580;SDS011;63557;52.302;7.964;2022-12-29T21:51:53;22.33;;;5.63;;
27580;SDS011;63557;52.302;7.964;2022-12-29T21:56:53;16.42;;;4.65;;
27580;SDS011;63557;52.302;7.964;2022-12-29T22:01:53;20.17;;;5.20;;
27580;SDS011;63557;52.302;7.964;2022-12-29T22:07:12;16.33;;;5.95;;
27580;SDS011;63557;52.302;7.964;2022-12-29T22:12:31;22.08;;;5.25;;
27580;SDS011;63557;52.302;7.964;2022-12-29T22:17:51;33.17;;;5.82;;
27580;SDS011;63557;52.302;7.964;2022-12-29T22:22:52;18.65;;;5.15;;
27580;SDS011;63557;52.302;7.964;2022-12-29T22:27:53;22.05;;;4.57;;
27580;SDS011;63557;52.302;7.964;2022-12-29T22:32:55;24.33;;;4.85;;
27580;SDS011;63557;52.302;7.964;2022-12-29T22:37:55;22.13;;;4.60;;
27580;SDS011;63557;52.302;7.964;2022-12-29T22:42:56;30.57;;;7.40;;
27580;SDS011;63557;52.302;7.964;2022-12-29T22:47:56;22.65;;;5.32;;
27580;SDS011;63557;52.302;7.964;2022-12-29T22:52:56;27.90;;;4.67;;
27580;SDS011;63557;52.302;7.964;2022-12-29T22:57:57;15.50;;;4.95;;
27580;SDS011;63557;52.302;7.964;2022-12-29T23:02:57;26.13;;;4.90;;
27580;SDS011;63557;52.302;7.964;2022-12-29T23:07:58;28.47;;;6.93;;
27580;SDS011;63557;52.302;7.964;2022-12-29T23:12:59;25.48;;;5.28;;
27580;SDS011;63557;52.302;7.964;2022-12-29T23:17:59;26.00;;;4.87;;
27580;SDS011;63557;52.302;7.964;2022-12-29T23:22:59;23.77;;;4.68;;
27580;SDS011;63557;52.302;7.964;2022-12-29T23:28:00;21.73;;;5.40;;
27580;SDS011;63557;52.302;7.964;2022-12-29T23:33:00;22.10;;;5.27;;
27580;SDS011;63557;52.302;7.964;2022-12-29T23:38:01;25.23;;;5.38;;
27580;SDS011;63557;52.302;7.964;2022-12-29T23:43:01;21.77;;;5.00;;
27580;SDS011;63557;52.302;7.964;2022-12-29T23:48:01;27.93;;;5.40;;
27580;SDS011;63557;52.302;7.964;2022-12-29T23:53:02;24.48;;;5.60;;
27580;SDS011;63557;52.302;7.964;2022-12-29T23:58:02;22.63;;;4.53;;
